Airfield :
LOGIN :

Register | Disclaimer

   EN    FR    IT 

 










Legend :    VFR   Marginal VFR   IFR   Intensive IFR   Very Intensive IFR
Visi :
Ceiling :
>= 8 km
>= 3000ft
5 to 8 km
1000 to 3000 ft
1500m to 5 km
500 to 1000 ft
800 to 1500m
200 to 500 ft
< 800m
< 200 ft
Symbols :   Thunderstorms  Fog  Heavy snow  Heavy precipitations  Wind > 20 kt
SIGMETs :     Misc.  Thunderstorms  Icing  Turbulence  Mountain Waves  Volcanic Ashes






- Airport Elevation : -11 ft
- IATA code : AMS


EHAM - Amsterdam Schiphol

CURRENT METAR :
  • 130955Z 09004KT 020V130 9999 -RADZ FEW006 BKN007 BKN020 04/03 Q0974 TEMPO SCT007 BKN025

EXPIRED METARs :
  • 130925Z 09006KT 030V130 9999 -RADZ FEW006 BKN007 BKN020 04/03 Q0974 TEMPO SCT007 BKN025
  • 130855Z 10006KT 070V130 9000 -RADZ FEW005 BKN007 BKN018 04/03 Q0973 TEMPO 7000
  • 130825Z 11009KT 070V130 9000 -RADZ FEW005 BKN007 BKN018 04/03 Q0973 TEMPO 7000
  • 130755Z 11010KT 9999 -RADZ FEW005 BKN007 BKN018 04/03 Q0972 NOSIG
  • 130725Z 12010KT 9999 -DZ FEW006 BKN007 04/03 Q0972 TEMPO 7000

TAF TAF EHAM
Valid from the 13 at 06:00 until the 14 at 12:00 UTC


130516Z 1306/1412 12012KT 9999 FEW008 BKN012
TEMPO 1306/1315 7000 RA BKN008
PROB40
TEMPO 1306/1315 4000 RADZ
BECMG 1306/1309 09005KT
TEMPO 1311/1315 VRB03KT
BECMG 1315/1317 28012KT BKN025
PROB30
TEMPO 1317/1324 7000 -SHRA SCT015TCU BKN020
BECMG 1318/1321 25015G25KT
TEMPO 1403/1406 5000 RA BKN010 OVC015
BECMG 1406/1409 25020G30KT 9999 NSW
TEMPO 1406/1412 26022G35KT 5000 SHRAGS SCT020CB



MET'MAP, your aeronautical weather chart ! - Copyright ORBIFLY December 2007 - Disclaimer

ORBIFLY MET'MAP TEAM :

Programming & Development : Alexandra Zaïnal
Concept & original design : Baudouin d'Aumeries
Assistance for programming : Marc-Olivier Méhu
Technical & hardware support : Manuel Goepfert

Contact : metmap@orbifly.com




SOURCES & CREDITS :

   NOAA